Time;durP1;ratioP1;P1;durP2;ratioP2;P2;SDS_P1;SDS_P2;PMS_P1;PMS_P2;Temp;Humidity;BMP_temperature;BMP_pressure;BME280_temperature;BME280_humidity;BME280_pressure;Samples;Min_cycle;Max_cycle;Signal;HPM_P1;HPM_P2
2022/05/28 00:00:06;;;;;;;;;;;;;;;27.94;38.12;94637.28;4935196;28;8996;-61
2022/05/28 00:02:43;;;;;;;;;;;;;;;27.91;38.39;94618.97;4948951;28;7273;-60
2022/05/28 00:05:09;;;;;;;;;;;;;;;27.93;38.39;94624.72;4933710;28;9385;-61
2022/05/28 00:07:44;;;;;;;;;;;;;;;27.92;38.00;94624.00;4944855;28;7243;-60
2022/05/28 00:10:14;;;;;;;;;;;;;;;27.91;38.35;94607.91;4951853;28;8214;-60
2022/05/28 00:12:42;;;;;;;;;;;;;;;27.94;38.33;94613.16;4933972;28;8150;-60
2022/05/28 00:15:09;;;;;;;;;;;;;;;27.95;38.30;94608.41;4934393;28;9054;-60
2022/05/28 00:17:36;;;;;;;;;;;;;;;27.94;38.24;94615.94;4933757;28;7194;-60
2022/05/28 00:20:06;;;;;;;;;;;;;;;27.94;38.20;94620.72;4948329;28;8763;-60
2022/05/28 00:22:41;;;;;;;;;;;;;;;27.91;38.28;94616.97;4937507;28;9116;-60
2022/05/28 00:25:10;;;;;;;;;;;;;;;27.89;38.00;94613.97;4947470;28;7184;-60
2022/05/28 00:27:44;;;;;;;;;;;;;;;27.86;38.37;94614.28;4946736;28;7584;-61
2022/05/28 00:30:16;;;;;;;;;;;;;;;27.86;38.31;94614.28;4947272;28;7476;-60
2022/05/28 00:33:00;;;;;;;;;;;;;;;27.84;38.20;94603.72;4970784;28;7258;-60
2022/05/28 00:35:27;;;;;;;;;;;;;;;27.87;38.17;94607.47;5010322;28;9019;-60
2022/05/28 00:37:53;;;;;;;;;;;;;;;27.91;38.27;94602.38;5017992;28;9436;-60
2022/05/28 00:40:23;;;;;;;;;;;;;;;27.91;38.45;94599.63;5011884;28;7224;-61
2022/05/28 00:42:52;;;;;;;;;;;;;;;27.89;38.48;94594.63;5021708;28;7050;-61
2022/05/28 00:45:21;;;;;;;;;;;;;;;27.86;38.14;94597.69;5008054;28;7267;-60
2022/05/28 00:47:53;;;;;;;;;;;;;;;27.85;38.43;94585.88;5011430;28;7439;-60
2022/05/28 00:50:22;;;;;;;;;;;;;;;27.87;38.40;94590.88;5017250;28;9369;-60
2022/05/28 00:52:56;;;;;;;;;;;;;;;27.86;38.27;94581.09;5011408;28;8963;-61
2022/05/28 00:55:54;;;;;;;;;;;;;;;27.86;37.92;94583.88;5012948;28;9123;-60
2022/05/28 00:58:22;;;;;;;;;;;;;;;27.83;38.63;94585.66;4909593;29;10089;-60
2022/05/28 01:01:02;;;;;;;;;;;;;;;27.84;38.47;94578.13;4885214;29;9175;-60
2022/05/28 01:04:01;;;;;;;;;;;;;;;27.87;38.07;94585.34;4892056;29;7294;-60
2022/05/28 01:07:04;;;;;;;;;;;;;;;27.87;37.91;94582.59;4912782;29;7620;-60
2022/05/28 01:09:55;;;;;;;;;;;;;;;27.84;38.34;94589.19;4906712;29;7282;-60
2022/05/28 01:13:00;;;;;;;;;;;;;;;27.82;38.19;94588.94;4900809;29;7393;-61
2022/05/28 01:15:37;;;;;;;;;;;;;;;27.80;38.37;94585.94;4900091;29;7259;-60
2022/05/28 01:18:36;;;;;;;;;;;;;;;27.79;38.21;94579.69;4908871;29;8737;-60
2022/05/28 01:21:23;;;;;;;;;;;;;;;27.79;38.49;94581.69;4912096;29;9148;-61
2022/05/28 01:24:05;;;;;;;;;;;;;;;27.78;38.42;94578.16;4906781;29;7169;-60
2022/05/28 01:26:52;;;;;;;;;;;;;;;27.79;38.38;94578.94;4888414;29;7017;-60
2022/05/28 01:29:32;;;;;;;;;;;;;;;27.78;38.20;94577.41;4914412;29;7713;-60
2022/05/28 01:32:23;;;;;;;;;;;;;;;27.79;38.37;94559.56;4892933;29;9111;-60
2022/05/28 01:34:51;;;;;;;;;;;;;;;27.79;38.53;94565.09;4960785;28;7108;-60
2022/05/28 01:37:19;;;;;;;;;;;;;;;27.79;38.77;94559.56;4999233;28;7016;-60
2022/05/28 01:39:49;;;;;;;;;;;;;;;27.77;38.31;94557.34;5011214;28;8989;-60
2022/05/28 01:42:18;;;;;;;;;;;;;;;27.77;38.37;94546.28;5012036;28;7247;-60
2022/05/28 01:44:49;;;;;;;;;;;;;;;27.78;38.49;94549.78;5010439;28;8643;-60
2022/05/28 01:47:18;;;;;;;;;;;;;;;27.79;38.26;94545.75;5023359;28;9411;-60
2022/05/28 01:50:25;;;;;;;;;;;;;;;27.79;38.34;94548.53;4996103;28;7223;-60
2022/05/28 01:52:56;;;;;;;;;;;;;;;27.78;38.43;94538.72;4917356;29;7268;-60
2022/05/28 01:55:35;;;;;;;;;;;;;;;27.76;38.75;94539.25;4915479;29;9078;-60
2022/05/28 01:58:13;;;;;;;;;;;;;;;27.75;38.51;94534.25;4914650;29;8328;-60
2022/05/28 02:00:40;;;;;;;;;;;;;;;27.75;38.60;94525.97;4908585;29;7220;-60
2022/05/28 02:03:07;;;;;;;;;;;;;;;27.76;38.17;94532.97;4908442;29;8206;-61
2022/05/28 02:05:49;;;;;;;;;;;;;;;27.76;38.38;94522.66;4902282;29;7316;-60
2022/05/28 02:08:18;;;;;;;;;;;;;;;27.76;37.93;94522.66;4905836;29;7310;-60
2022/05/28 02:11:07;;;;;;;;;;;;;;;27.75;38.60;94509.38;4915298;29;7468;-60
2022/05/28 02:14:08;;;;;;;;;;;;;;;27.74;38.39;94514.16;4915110;29;7431;-60
2022/05/28 02:17:18;;;;;;;;;;;;;;;27.71;38.26;94520.00;4929483;29;9371;-60
2022/05/28 02:20:05;;;;;;;;;;;;;;;27.70;38.35;94521.25;4858411;29;9192;-60
2022/05/28 02:22:47;;;;;;;;;;;;;;;27.68;37.93;94526.53;4855121;29;9117;-60
2022/05/28 02:25:33;;;;;;;;;;;;;;;27.70;38.71;94518.47;4840914;29;6997;-60
2022/05/28 02:28:05;;;;;;;;;;;;;;;27.71;38.77;94520.72;4912724;29;9341;-60
2022/05/28 02:30:32;;;;;;;;;;;;;;;27.71;38.30;94514.47;4914772;29;7217;-60
2022/05/28 02:33:05;;;;;;;;;;;;;;;27.72;38.43;94516.69;4926965;29;7473;-60
2022/05/28 02:35:31;;;;;;;;;;;;;;;27.73;38.25;94517.44;4914248;29;8863;-60
2022/05/28 02:37:58;;;;;;;;;;;;;;;27.68;38.47;94515.50;4923309;29;7020;-60
2022/05/28 02:40:26;;;;;;;;;;;;;;;27.69;38.57;94517.72;4909062;29;7250;-60
2022/05/28 02:42:53;;;;;;;;;;;;;;;27.68;38.41;94507.19;4922503;28;7321;-60
2022/05/28 02:45:19;;;;;;;;;;;;;;;27.69;38.35;94505.94;4908558;29;7124;-61
2022/05/28 02:47:46;;;;;;;;;;;;;;;27.69;38.22;94501.16;4925664;29;9064;-60
2022/05/28 02:50:14;;;;;;;;;;;;;;;27.69;38.03;94500.41;4904556;29;7146;-60
2022/05/28 02:52:42;;;;;;;;;;;;;;;27.69;38.21;94494.91;4944489;28;9612;-60
2022/05/28 02:55:10;;;;;;;;;;;;;;;27.69;38.38;94500.41;5005554;28;7230;-60
2022/05/28 02:57:39;;;;;;;;;;;;;;;27.67;38.59;94489.88;5015470;28;6990;-60
2022/05/28 03:00:07;;;;;;;;;;;;;;;27.67;38.23;94486.34;4999842;28;9150;-60
2022/05/28 03:02:33;;;;;;;;;;;;;;;27.69;38.14;94490.09;5003525;28;6969;-60
2022/05/28 03:04:59;;;;;;;;;;;;;;;27.69;38.49;94489.38;5007706;28;9227;-60
2022/05/28 03:07:29;;;;;;;;;;;;;;;27.70;38.39;94491.59;5025902;28;8789;-60
2022/05/28 03:09:58;;;;;;;;;;;;;;;27.70;38.36;94485.31;5016354;28;7255;-60
2022/05/28 03:12:31;;;;;;;;;;;;;;;27.68;38.12;94485.09;5009061;28;8721;-60
2022/05/28 03:14:57;;;;;;;;;;;;;;;27.66;37.79;94485.63;5003927;28;9426;-60
2022/05/28 03:17:25;;;;;;;;;;;;;;;27.67;38.04;94484.34;5022617;28;7046;-60
2022/05/28 03:19:51;;;;;;;;;;;;;;;27.69;38.05;94483.84;4994061;28;7257;-60
2022/05/28 03:22:28;;;;;;;;;;;;;;;27.67;37.90;94483.59;5018780;28;7195;-60
2022/05/28 03:25:28;;;;;;;;;;;;;;;27.65;38.22;94481.34;5012512;28;7523;-60
2022/05/28 03:28:05;;;;;;;;;;;;;;;27.63;38.58;94481.13;4936528;28;7100;-60
2022/05/28 03:30:32;;;;;;;;;;;;;;;27.64;38.39;94477.84;4931356;28;9034;-60
2022/05/28 03:32:59;;;;;;;;;;;;;;;27.62;38.39;94474.84;4953638;28;9492;-60
2022/05/28 03:35:27;;;;;;;;;;;;;;;27.65;38.27;94481.34;4938371;28;7185;-60
2022/05/28 03:37:57;;;;;;;;;;;;;;;27.62;37.93;94476.88;4949711;28;7000;-60
2022/05/28 03:40:26;;;;;;;;;;;;;;;27.62;38.43;94483.13;4946221;28;7207;-60
2022/05/28 03:42:54;;;;;;;;;;;;;;;27.62;38.04;94485.19;4934157;28;7580;-60
2022/05/28 03:45:23;;;;;;;;;;;;;;;27.60;38.49;94480.16;4938857;28;8728;-60
2022/05/28 03:47:56;;;;;;;;;;;;;;;27.60;38.46;94476.63;4934560;28;7515;-60
2022/05/28 03:50:24;;;;;;;;;;;;;;;27.60;38.20;94482.91;4944032;28;9064;-60
2022/05/28 03:52:50;;;;;;;;;;;;;;;27.58;38.57;94473.66;4927855;28;7691;-60
2022/05/28 03:55:20;;;;;;;;;;;;;;;27.59;38.44;94475.91;4938159;28;7265;-60
2022/05/28 03:57:48;;;;;;;;;;;;;;;27.59;38.38;94484.19;4935536;28;7421;-61
2022/05/28 04:00:16;;;;;;;;;;;;;;;27.60;38.11;94488.44;4951987;28;7236;-60
2022/05/28 04:02:42;;;;;;;;;;;;;;;27.59;38.38;94492.50;4959291;28;7041;-60
2022/05/28 04:05:23;;;;;;;;;;;;;;;27.59;38.26;94491.75;5000808;28;7566;-60
2022/05/28 04:07:59;;;;;;;;;;;;;;;27.57;38.18;94489.50;5001870;28;9070;-60
2022/05/28 04:10:26;;;;;;;;;;;;;;;27.57;38.55;94492.28;5021871;28;7341;-60
2022/05/28 04:13:24;;;;;;;;;;;;;;;27.58;38.66;94490.97;5021867;28;6977;-60
2022/05/28 04:15:56;;;;;;;;;;;;;;;27.58;38.11;94490.22;4898893;29;9604;-60
2022/05/28 04:18:31;;;;;;;;;;;;;;;27.53;38.36;94483.50;4893577;29;7229;-60
2022/05/28 04:20:58;;;;;;;;;;;;;;;27.55;38.17;94494.81;4893260;29;7227;-60
2022/05/28 04:23:40;;;;;;;;;;;;;;;27.56;38.36;94499.06;4906825;29;7980;-60
2022/05/28 04:26:39;;;;;;;;;;;;;;;27.54;38.40;94500.84;4907923;29;9148;-60
2022/05/28 04:29:10;;;;;;;;;;;;;;;27.52;38.10;94492.31;4822374;29;7185;-60
2022/05/28 04:31:44;;;;;;;;;;;;;;;27.53;38.36;94500.06;4823073;29;7209;-60
2022/05/28 04:34:11;;;;;;;;;;;;;;;27.53;38.01;94508.38;4839321;29;9080;-60
2022/05/28 04:36:40;;;;;;;;;;;;;;;27.52;37.65;94506.88;4838652;29;8035;-60
2022/05/28 04:39:06;;;;;;;;;;;;;;;27.50;37.60;94501.13;4836022;29;9107;-61
2022/05/28 04:41:32;;;;;;;;;;;;;;;27.53;37.87;94513.16;4850521;29;8502;-60
2022/05/28 04:44:00;;;;;;;;;;;;;;;27.51;37.62;94513.66;4840363;29;7055;-60
2022/05/28 04:46:28;;;;;;;;;;;;;;;27.48;38.01;94514.72;4845913;29;9056;-60
2022/05/28 04:48:57;;;;;;;;;;;;;;;27.47;37.60;94504.22;4834641;29;7425;-61
2022/05/28 04:51:26;;;;;;;;;;;;;;;27.48;37.79;94511.22;4852569;28;7236;-61
2022/05/28 04:53:55;;;;;;;;;;;;;;;27.49;37.22;94515.47;4931001;28;7216;-60
2022/05/28 04:56:32;;;;;;;;;;;;;;;27.47;37.76;94512.50;4935923;28;7423;-60
2022/05/28 04:59:08;;;;;;;;;;;;;;;27.47;37.69;94504.94;4936594;28;9121;-60
2022/05/28 05:01:44;;;;;;;;;;;;;;;27.48;37.83;94503.69;4936614;28;8105;-60
2022/05/28 05:04:26;;;;;;;;;;;;;;;27.46;37.96;94503.44;4940540;28;7471;-60
2022/05/28 05:07:20;;;;;;;;;;;;;;;27.45;38.30;94515.00;5010535;28;7344;-60
2022/05/28 05:09:46;;;;;;;;;;;;;;;27.42;37.78;94505.00;5000786;28;9340;-60
2022/05/28 05:12:28;;;;;;;;;;;;;;;27.42;38.17;94505.00;5004374;28;9063;-60
2022/05/28 05:15:03;;;;;;;;;;;;;;;27.41;38.48;94511.78;5002007;28;8373;-60
2022/05/28 05:17:30;;;;;;;;;;;;;;;27.38;37.77;94515.59;5010951;28;8930;-60
2022/05/28 05:20:02;;;;;;;;;;;;;;;27.41;37.73;94520.06;5015479;28;7074;-60
2022/05/28 05:22:29;;;;;;;;;;;;;;;27.43;37.73;94509.25;5003235;28;7331;-60
2022/05/28 05:25:06;;;;;;;;;;;;;;;27.42;38.17;94505.75;5017960;28;7144;-60
2022/05/28 05:27:39;;;;;;;;;;;;;;;27.42;37.46;94510.53;5001766;28;9078;-60
2022/05/28 05:30:22;;;;;;;;;;;;;;;27.43;38.36;94521.06;5012161;28;7242;-60
2022/05/28 05:33:00;;;;;;;;;;;;;;;27.40;38.20;94508.31;5000163;28;7179;-60
2022/05/28 05:35:29;;;;;;;;;;;;;;;27.39;38.05;94511.56;5001157;28;7254;-60
2022/05/28 05:38:08;;;;;;;;;;;;;;;27.40;38.11;94507.56;5005034;28;7146;-60
2022/05/28 05:40:37;;;;;;;;;;;;;;;27.40;38.46;94519.34;5021737;28;9777;-60
2022/05/28 05:43:04;;;;;;;;;;;;;;;27.41;37.89;94507.03;5006631;28;9663;-60
2022/05/28 05:45:30;;;;;;;;;;;;;;;27.42;37.63;94511.28;5018940;28;9079;-60
2022/05/28 05:48:06;;;;;;;;;;;;;;;27.43;38.09;94517.53;5000187;28;7394;-60
2022/05/28 05:50:35;;;;;;;;;;;;;;;27.38;38.52;94512.84;5020401;28;9175;-60
2022/05/28 05:53:13;;;;;;;;;;;;;;;27.37;38.19;94512.09;4997504;28;9274;-60
2022/05/28 05:55:46;;;;;;;;;;;;;;;27.35;38.10;94511.88;5004327;28;9142;-60
2022/05/28 05:58:22;;;;;;;;;;;;;;;27.35;38.23;94516.59;5008969;28;7186;-60
2022/05/28 06:01:17;;;;;;;;;;;;;;;27.33;37.76;94521.91;5015711;28;7233;-60
2022/05/28 06:04:02;;;;;;;;;;;;;;;27.32;38.09;94521.16;4908820;29;7277;-60
2022/05/28 06:06:37;;;;;;;;;;;;;;;27.28;38.10;94517.19;4927342;29;7109;-60
2022/05/28 06:09:05;;;;;;;;;;;;;;;27.31;37.92;94521.69;4912114;29;8201;-60
2022/05/28 06:12:02;;;;;;;;;;;;;;;27.33;37.32;94516.38;4930095;29;7266;-60
2022/05/28 06:14:30;;;;;;;;;;;;;;;27.31;37.31;94521.69;4896309;29;8766;-60
2022/05/28 06:16:58;;;;;;;;;;;;;;;27.29;38.11;94516.69;4904906;29;7464;-60
2022/05/28 06:19:24;;;;;;;;;;;;;;;27.30;37.88;94520.94;4903587;29;7329;-60
2022/05/28 06:21:50;;;;;;;;;;;;;;;27.31;38.01;94518.91;4910030;29;7360;-60
2022/05/28 06:24:30;;;;;;;;;;;;;;;27.30;37.32;94520.16;4896910;29;8994;-60
2022/05/28 06:27:03;;;;;;;;;;;;;;;27.29;37.88;94513.91;4912927;29;9260;-59
2022/05/28 06:29:48;;;;;;;;;;;;;;;27.32;37.41;94518.38;4894944;29;9314;-60
2022/05/28 06:32:16;;;;;;;;;;;;;;;27.31;37.45;94516.91;4895523;29;7394;-60
2022/05/28 06:35:02;;;;;;;;;;;;;;;27.29;37.32;94510.41;4917237;29;7535;-60
2022/05/28 06:37:37;;;;;;;;;;;;;;;27.26;38.05;94519.72;4908946;29;9059;-60
2022/05/28 06:40:07;;;;;;;;;;;;;;;27.25;38.14;94518.97;4917434;28;7200;-60
2022/05/28 06:42:34;;;;;;;;;;;;;;;27.26;37.75;94514.94;4938716;28;7296;-59
2022/05/28 06:44:59;;;;;;;;;;;;;;;27.30;38.33;94514.66;4932024;28;6986;-60
2022/05/28 06:47:27;;;;;;;;;;;;;;;27.28;37.79;94509.66;4927709;28;7872;-59
2022/05/28 06:53:00;;;;;;;;;;;;;;;27.30;37.65;94520.16;5020047;28;9094;-60
2022/05/28 06:55:26;;;;;;;;;;;;;;;27.30;38.24;94515.41;5014887;28;9024;-60
2022/05/28 06:58:11;;;;;;;;;;;;;;;27.31;38.19;94511.38;5004639;28;7242;-59
2022/05/28 07:00:42;;;;;;;;;;;;;;;27.30;37.40;94511.88;5004543;28;7066;-59
2022/05/28 07:03:15;;;;;;;;;;;;;;;27.29;37.51;94507.66;5014242;28;9607;-60
2022/05/28 07:05:41;;;;;;;;;;;;;;;27.27;38.21;94510.94;5018306;28;7286;-60
2022/05/28 07:08:10;;;;;;;;;;;;;;;27.28;38.28;94512.41;5009593;28;9337;-60
2022/05/28 07:11:07;;;;;;;;;;;;;;;27.26;38.53;94508.66;5005896;28;7025;-60
2022/05/28 07:13:42;;;;;;;;;;;;;;;27.25;38.65;94507.91;4910191;29;7508;-60
2022/05/28 07:16:17;;;;;;;;;;;;;;;27.24;38.21;94511.97;4919235;29;6982;-60
2022/05/28 07:19:13;;;;;;;;;;;;;;;27.26;37.91;94511.44;4925456;29;9062;-60
2022/05/28 07:21:59;;;;;;;;;;;;;;;27.25;38.57;94507.19;4890877;29;9170;-60
2022/05/28 07:24:25;;;;;;;;;;;;;;;27.23;38.22;94506.97;4872118;29;9475;-60
2022/05/28 07:27:05;;;;;;;;;;;;;;;27.25;38.26;94510.69;4876450;29;9061;-60
2022/05/28 07:29:43;;;;;;;;;;;;;;;27.29;38.36;94505.63;4872649;29;7892;-60
2022/05/28 07:32:29;;;;;;;;;;;;;;;27.31;38.63;94505.88;4892626;29;9304;-60
2022/05/28 07:34:58;;;;;;;;;;;;;;;27.30;38.08;94507.13;4875459;29;7329;-60
2022/05/28 07:37:29;;;;;;;;;;;;;;;27.33;38.00;94506.09;4889896;29;7434;-60
2022/05/28 07:39:55;;;;;;;;;;;;;;;27.34;38.02;94499.28;4878880;29;7262;-60
2022/05/28 07:42:27;;;;;;;;;;;;;;;27.36;37.74;94507.09;4875524;29;7250;-60
2022/05/28 07:44:53;;;;;;;;;;;;;;;27.36;38.04;94498.81;4876853;29;7014;-60
2022/05/28 07:47:37;;;;;;;;;;;;;;;27.36;38.13;94499.53;4885465;29;7275;-60
2022/05/28 07:50:06;;;;;;;;;;;;;;;27.34;37.79;94496.53;4935762;28;9633;-59
2022/05/28 07:52:32;;;;;;;;;;;;;;;27.30;38.36;94492.56;4982566;28;7590;-60
2022/05/28 07:55:10;;;;;;;;;;;;;;;27.27;37.72;94493.59;4967692;28;9074;-60
2022/05/28 07:57:38;;;;;;;;;;;;;;;27.25;37.72;94498.91;4972623;28;8023;-60
2022/05/28 08:00:04;;;;;;;;;;;;;;;27.24;37.96;94495.38;5004896;28;9371;-60
2022/05/28 08:02:33;;;;;;;;;;;;;;;27.24;37.91;94481.59;5006157;28;7893;-59
2022/05/28 08:05:01;;;;;;;;;;;;;;;27.26;38.18;94498.38;5004198;28;9215;-60
2022/05/28 08:07:41;;;;;;;;;;;;;;;27.25;38.05;94491.34;5007580;28;6975;-60
2022/05/28 08:10:07;;;;;;;;;;;;;;;27.26;37.65;94483.81;5024461;28;7079;-59
2022/05/28 08:12:33;;;;;;;;;;;;;;;27.27;38.05;94499.13;5012341;28;7292;-59
2022/05/28 08:15:05;;;;;;;;;;;;;;;27.25;37.37;94491.34;5011006;28;6996;-59
2022/05/28 08:17:32;;;;;;;;;;;;;;;27.27;38.30;94488.84;5003983;28;9461;-59
2022/05/28 08:19:58;;;;;;;;;;;;;;;27.27;38.40;94486.06;5013603;28;8735;-59
2022/05/28 08:25:13;;;;;;;;;;;;;;;27.29;37.50;94491.81;5018209;28;7473;-60
2022/05/28 08:27:41;;;;;;;;;;;;;;;27.28;37.56;94487.56;5007324;28;7259;-60
2022/05/28 08:30:29;;;;;;;;;;;;;;;27.25;38.00;94485.81;5016643;28;9049;-59
2022/05/28 08:32:57;;;;;;;;;;;;;;;27.25;38.35;94485.81;5016388;28;7370;-60
2022/05/28 08:35:26;;;;;;;;;;;;;;;27.25;37.60;94488.59;5004128;28;9475;-59
2022/05/28 08:37:54;;;;;;;;;;;;;;;27.25;38.25;94485.09;5016068;28;7207;-59
2022/05/28 08:40:23;;;;;;;;;;;;;;;27.25;38.29;94485.09;5003812;28;7002;-59
2022/05/28 08:42:50;;;;;;;;;;;;;;;27.24;37.64;94473.28;5011456;28;10290;-59
2022/05/28 08:45:17;;;;;;;;;;;;;;;27.25;38.29;94490.63;5012347;28;7253;-59
2022/05/28 08:47:51;;;;;;;;;;;;;;;27.24;38.20;94470.53;4997537;28;9098;-59
2022/05/28 08:50:27;;;;;;;;;;;;;;;27.28;38.63;94471.00;5019916;28;8833;-60
2022/05/28 08:53:18;;;;;;;;;;;;;;;27.26;38.06;94473.53;4997408;28;8615;-59
2022/05/28 08:55:50;;;;;;;;;;;;;;;27.25;38.51;94463.72;4997832;28;9136;-59
2022/05/28 08:58:23;;;;;;;;;;;;;;;27.26;37.80;94459.72;4998677;28;6983;-60
2022/05/28 09:00:57;;;;;;;;;;;;;;;27.27;38.14;94468.75;4999567;28;7310;-59
2022/05/28 09:03:33;;;;;;;;;;;;;;;27.25;38.52;94454.72;5004728;28;9051;-60
2022/05/28 09:06:33;;;;;;;;;;;;;;;27.26;38.68;94461.72;5004542;28;8833;-60
2022/05/28 09:09:04;;;;;;;;;;;;;;;27.26;38.43;94450.69;4999591;28;9279;-60
2022/05/28 09:11:50;;;;;;;;;;;;;;;27.26;38.31;94461.72;5018444;28;9565;-60
2022/05/28 09:14:30;;;;;;;;;;;;;;;27.26;37.99;94447.91;5012997;28;9073;-59
2022/05/28 09:17:26;;;;;;;;;;;;;;;27.26;38.64;94445.16;5007344;28;7935;-59
2022/05/28 09:20:02;;;;;;;;;;;;;;;27.25;38.13;94449.94;4947395;28;7305;-59
2022/05/28 09:22:28;;;;;;;;;;;;;;;27.25;38.75;94447.16;4944664;28;7180;-60
2022/05/28 09:24:54;;;;;;;;;;;;;;;27.24;38.22;94445.69;4940383;28;7254;-60
2022/05/28 09:27:40;;;;;;;;;;;;;;;27.24;38.75;94440.16;4962937;28;7321;-60
2022/05/28 09:30:19;;;;;;;;;;;;;;;27.25;39.21;94436.13;4948410;28;8038;-60
2022/05/28 09:33:23;;;;;;;;;;;;;;;27.26;38.51;94442.41;4960623;28;7417;-60
2022/05/28 09:36:18;;;;;;;;;;;;;;;27.26;39.43;94436.88;4960458;28;7203;-60
2022/05/28 09:38:47;;;;;;;;;;;;;;;27.26;38.67;94437.63;4959967;28;7204;-60
2022/05/28 09:41:19;;;;;;;;;;;;;;;27.29;39.13;94435.84;4964043;28;7001;-60
2022/05/28 09:43:53;;;;;;;;;;;;;;;27.29;39.12;94430.31;4963591;28;7171;-60
2022/05/28 09:46:28;;;;;;;;;;;;;;;27.27;39.12;94417.03;4943900;28;7244;-60
2022/05/28 09:49:13;;;;;;;;;;;;;;;27.31;39.40;94425.00;4965023;28;8811;-61
2022/05/28 09:52:13;;;;;;;;;;;;;;;27.31;39.56;94417.47;4961867;28;9016;-60
2022/05/28 09:55:13;;;;;;;;;;;;;;;27.35;39.25;94420.72;4856273;29;9620;-60
2022/05/28 09:57:51;;;;;;;;;;;;;;;27.34;39.32;94410.91;4899496;29;7045;-60
2022/05/28 10:00:22;;;;;;;;;;;;;;;27.33;38.96;94406.66;4884054;29;6955;-60
2022/05/28 10:06:03;;;;;;;;;;;;;;;27.35;39.32;94403.38;4901093;29;9729;-60
2022/05/28 10:08:32;;;;;;;;;;;;;;;27.31;38.86;94406.44;4884928;29;7257;-60
2022/05/28 10:11:06;;;;;;;;;;;;;;;27.30;39.32;94404.94;4895838;29;7300;-60
2022/05/28 10:13:52;;;;;;;;;;;;;;;27.30;39.32;94404.94;4898872;29;8760;-60
2022/05/28 10:16:53;;;;;;;;;;;;;;;27.32;39.42;94396.88;4899401;29;7169;-60
2022/05/28 10:19:47;;;;;;;;;;;;;;;27.34;39.39;94391.56;4852461;29;7388;-60
2022/05/28 10:22:18;;;;;;;;;;;;;;;27.31;40.57;94389.13;4850949;29;7534;-60
2022/05/28 10:24:52;;;;;;;;;;;;;;;27.31;40.57;94389.88;4837271;29;7491;-60
2022/05/28 10:27:33;;;;;;;;;;;;;;;27.32;40.60;94377.53;4840216;29;9168;-60
2022/05/28 10:30:07;;;;;;;;;;;;;;;27.32;40.06;94382.31;4882966;28;6965;-60
2022/05/28 10:32:51;;;;;;;;;;;;;;;27.33;40.46;94381.06;4928306;28;8681;-60
2022/05/28 10:35:52;;;;;;;;;;;;;;;27.35;40.18;94370.22;4935738;28;9838;-60
2022/05/28 10:38:27;;;;;;;;;;;;;;;27.33;39.58;94375.53;4924442;29;7640;-60
2022/05/28 10:40:57;;;;;;;;;;;;;;;27.31;39.94;94362.25;4917062;28;7220;-60
2022/05/28 10:43:36;;;;;;;;;;;;;;;27.32;39.67;94365.72;4931981;28;6982;-60
2022/05/28 10:46:30;;;;;;;;;;;;;;;27.34;38.75;94366.72;4924984;28;7328;-60
2022/05/28 10:49:26;;;;;;;;;;;;;;;27.33;38.60;94364.47;4932629;28;9488;-60
2022/05/28 10:52:12;;;;;;;;;;;;;;;27.32;38.23;94366.50;4935108;29;9529;-60
2022/05/28 10:55:08;;;;;;;;;;;;;;;27.33;38.42;94362.47;4936774;28;9502;-61
2022/05/28 10:58:13;;;;;;;;;;;;;;;27.34;38.28;94363.94;4995378;28;9098;-60
2022/05/28 11:00:39;;;;;;;;;;;;;;;27.34;38.30;94361.19;4957312;28;9769;-60
2022/05/28 11:03:51;;;;;;;;;;;;;;;27.35;38.20;94351.66;4966049;28;7182;-61
2022/05/28 11:06:55;;;;;;;;;;;;;;;27.38;38.89;94345.09;4962579;28;7588;-60
2022/05/28 11:09:46;;;;;;;;;;;;;;;27.41;38.62;94341.28;4965704;28;8132;-60
2022/05/28 11:13:14;;;;;;;;;;;;;;;27.40;38.41;94334.28;4962190;28;7236;-60
2022/05/28 11:15:55;;;;;;;;;;;;;;;27.39;38.48;94332.03;4890755;29;9016;-60
2022/05/28 11:18:59;;;;;;;;;;;;;;;27.39;37.96;94326.50;4891001;29;9092;-60
2022/05/28 11:22:14;;;;;;;;;;;;;;;27.40;38.22;94328.00;4890746;29;7082;-61
2022/05/28 11:25:09;;;;;;;;;;;;;;;27.40;38.30;94320.47;4797016;29;9055;-61
2022/05/28 11:28:26;;;;;;;;;;;;;;;27.40;38.26;94328.75;4817550;29;7192;-60
2022/05/28 11:31:42;;;;;;;;;;;;;;;27.39;39.04;94320.97;5054056;28;6786;-59
2022/05/28 11:34:40;;;;;;;;;;;;;;;27.38;38.46;94317.47;4998557;28;7079;-59
2022/05/28 11:37:22;;;;;;;;;;;;;;;27.40;38.99;94319.72;4986033;28;8811;-59
2022/05/28 11:40:04;;;;;;;;;;;;;;;27.40;39.25;94308.66;4984183;28;7360;-59
2022/05/28 11:42:48;;;;;;;;;;;;;;;27.42;39.10;94306.88;4986055;28;7215;-59
2022/05/28 11:45:58;;;;;;;;;;;;;;;27.43;38.41;94296.56;4985626;28;7288;-59
2022/05/28 11:52:06;;;;;;;;;;;;;;;27.44;38.31;94296.06;4989531;28;7256;-59
2022/05/28 11:54:41;;;;;;;;;;;;;;;27.44;38.95;94296.06;4987640;28;7263;-60
2022/05/28 11:57:21;;;;;;;;;;;;;;;27.45;39.30;94308.56;4976670;28;7007;-59
2022/05/28 11:59:50;;;;;;;;;;;;;;;27.48;39.55;94295.72;4980337;28;8763;-59
2022/05/28 12:02:28;;;;;;;;;;;;;;;27.47;38.39;94292.22;4999934;28;9063;-59
2022/05/28 12:04:54;;;;;;;;;;;;;;;27.49;38.69;94284.16;4996058;28;8782;-59
2022/05/28 12:07:39;;;;;;;;;;;;;;;27.51;38.28;94278.84;4986553;28;6943;-59
2022/05/28 12:10:27;;;;;;;;;;;;;;;27.50;38.40;94280.13;4978710;28;7388;-59
2022/05/28 12:13:00;;;;;;;;;;;;;;;27.51;38.87;94278.84;4991770;28;9200;-59
2022/05/28 12:15:31;;;;;;;;;;;;;;;27.52;38.26;94274.06;5036271;28;6983;-59
2022/05/28 12:18:07;;;;;;;;;;;;;;;27.53;38.46;94267.28;4998942;28;7183;-59
2022/05/28 12:20:38;;;;;;;;;;;;;;;27.53;38.30;94270.78;5002211;28;9100;-59
2022/05/28 12:23:05;;;;;;;;;;;;;;;27.52;38.74;94272.06;5010775;28;7239;-59
2022/05/28 12:25:37;;;;;;;;;;;;;;;27.53;38.82;94268.00;5002287;28;9054;-59
2022/05/28 12:28:27;;;;;;;;;;;;;;;27.55;38.10;94257.19;4997730;28;7129;-59
2022/05/28 12:30:54;;;;;;;;;;;;;;;27.55;38.55;94259.97;5026995;28;7326;-59
2022/05/28 12:33:29;;;;;;;;;;;;;;;27.58;37.80;94253.38;5000336;28;9047;-59
2022/05/28 12:36:16;;;;;;;;;;;;;;;27.57;38.23;94254.66;5024651;28;9529;-59
2022/05/28 12:39:01;;;;;;;;;;;;;;;27.56;38.17;94242.09;5021051;28;7225;-59
2022/05/28 12:41:32;;;;;;;;;;;;;;;27.55;38.36;94237.88;4987095;28;7285;-59
2022/05/28 12:44:02;;;;;;;;;;;;;;;27.56;37.51;94236.56;4995003;28;8249;-59
2022/05/28 12:46:51;;;;;;;;;;;;;;;27.57;37.97;94235.31;5001482;28;7280;-59
2022/05/28 12:49:22;;;;;;;;;;;;;;;27.57;37.27;94235.31;4981328;28;8722;-59
2022/05/28 12:51:57;;;;;;;;;;;;;;;27.56;37.47;94228.28;4978981;28;7670;-59
2022/05/28 12:54:34;;;;;;;;;;;;;;;27.59;37.86;94230.00;5008390;28;7195;-59
2022/05/28 12:57:26;;;;;;;;;;;;;;;27.62;38.47;94222.69;4992909;28;9439;-59
2022/05/28 13:00:24;;;;;;;;;;;;;;;27.61;37.71;94221.94;4981304;28;7272;-59
2022/05/28 13:02:55;;;;;;;;;;;;;;;27.62;38.50;94215.13;4978500;28;9689;-59
2022/05/28 13:05:34;;;;;;;;;;;;;;;27.61;38.41;94210.88;4984466;28;6986;-59
2022/05/28 13:08:09;;;;;;;;;;;;;;;27.61;38.28;94210.88;4984510;28;7243;-59
2022/05/28 13:10:37;;;;;;;;;;;;;;;27.62;38.43;94206.81;5009321;28;7023;-60
2022/05/28 13:13:21;;;;;;;;;;;;;;;27.62;38.52;94206.81;4983307;28;7239;-59
2022/05/28 13:16:18;;;;;;;;;;;;;;;27.62;38.74;94201.31;4978933;28;7299;-59
2022/05/28 13:18:47;;;;;;;;;;;;;;;27.63;39.38;94194.50;4979261;28;7637;-59
2022/05/28 13:21:38;;;;;;;;;;;;;;;27.67;38.76;94193.44;4979096;28;9218;-59
2022/05/28 13:24:26;;;;;;;;;;;;;;;27.64;39.06;94190.47;4977188;28;9030;-59
2022/05/28 13:27:12;;;;;;;;;;;;;;;27.63;39.04;94189.00;4986180;28;7287;-59
2022/05/28 13:29:59;;;;;;;;;;;;;;;27.63;39.17;94186.22;5007575;28;8774;-59
2022/05/28 13:32:48;;;;;;;;;;;;;;;27.62;38.69;94181.25;5014556;28;7164;-59
2022/05/28 13:35:17;;;;;;;;;;;;;;;27.60;38.91;94172.72;4992065;28;8052;-59
2022/05/28 13:38:01;;;;;;;;;;;;;;;27.63;38.93;94182.72;5006412;28;7320;-59
2022/05/28 13:40:31;;;;;;;;;;;;;;;27.62;38.99;94175.72;4988264;28;9033;-59
2022/05/28 13:43:18;;;;;;;;;;;;;;;27.61;38.99;94180.50;4992562;28;8748;-59
2022/05/28 13:46:04;;;;;;;;;;;;;;;27.60;38.87;94170.69;4984998;28;8725;-59
2022/05/28 13:48:38;;;;;;;;;;;;;;;27.65;38.08;94166.34;4984258;28;9170;-59
2022/05/28 13:51:10;;;;;;;;;;;;;;;27.66;38.67;94159.56;4991387;28;7273;-59
2022/05/28 13:53:40;;;;;;;;;;;;;;;27.66;38.30;94154.03;5004221;28;7557;-59
2022/05/28 13:56:12;;;;;;;;;;;;;;;27.70;38.35;94153.69;4988219;28;9418;-59
2022/05/28 13:59:06;;;;;;;;;;;;;;;27.72;38.26;94151.16;4998245;28;9066;-59
2022/05/28 14:01:49;;;;;;;;;;;;;;;27.70;37.90;94148.94;4980872;28;9131;-59